createdAt,value
2018-09-25T00:00:07.577Z,8.55
2018-09-25T00:01:07.458Z,8.51
2018-09-25T00:02:07.456Z,8.45
2018-09-25T00:03:07.459Z,8.49
2018-09-25T00:04:07.378Z,8.45
2018-09-25T00:05:07.259Z,8.42
2018-09-25T00:06:07.223Z,8.45
2018-09-25T00:07:07.140Z,8.45
2018-09-25T00:08:07.102Z,8.31
2018-09-25T00:09:07.142Z,8.34
2018-09-25T00:10:06.992Z,8.19
2018-09-25T00:11:06.988Z,8.23
2018-09-25T00:12:06.889Z,8.23
2018-09-25T00:13:06.870Z,8.20
2018-09-25T00:14:06.868Z,8.24
2018-09-25T00:15:06.749Z,8.23
2018-09-25T00:16:06.665Z,8.09
2018-09-25T00:17:06.631Z,8.12
2018-09-25T00:18:06.566Z,8.05
2018-09-25T00:19:06.553Z,8.05
2018-09-25T00:20:06.515Z,8.00
2018-09-25T00:21:06.431Z,7.97
2018-09-25T00:22:06.396Z,7.95
2018-09-25T00:23:06.397Z,7.95
2018-09-25T00:24:06.288Z,7.91
2018-09-25T00:25:06.200Z,7.87
2018-09-25T00:26:06.160Z,7.87
2018-09-25T00:27:06.174Z,7.87
2018-09-25T00:28:06.041Z,7.91
2018-09-25T00:29:06.043Z,7.93
2018-09-25T00:30:05.958Z,7.90
2018-09-25T00:31:05.926Z,7.87
2018-09-25T00:32:05.835Z,7.91
2018-09-25T00:33:05.850Z,7.87
2018-09-25T00:34:05.727Z,7.91
2018-09-25T00:35:05.689Z,7.90
2018-09-25T00:36:05.611Z,7.88
2018-09-25T00:37:05.571Z,7.80
2018-09-25T00:38:05.582Z,7.83
2018-09-25T00:39:05.456Z,7.80
2018-09-25T00:40:05.460Z,7.76
2018-09-25T00:41:05.346Z,7.79
2018-09-25T00:42:05.376Z,7.69
2018-09-25T00:43:05.255Z,7.80
2018-09-25T00:44:05.254Z,7.70
2018-09-25T00:45:05.221Z,7.77
2018-09-25T00:46:05.100Z,7.75
2018-09-25T00:47:05.156Z,7.67
2018-09-25T00:48:04.981Z,7.69
2018-09-25T00:49:04.990Z,7.72
2018-09-25T00:50:04.867Z,7.57
2018-09-25T00:51:04.896Z,7.57
2018-09-25T00:52:04.866Z,7.57
2018-09-25T00:53:04.750Z,7.51
2018-09-25T00:54:04.751Z,7.50
2018-09-25T00:55:04.628Z,7.47
2018-09-25T00:56:04.546Z,7.45
2018-09-25T00:57:04.510Z,7.33
2018-09-25T00:58:04.510Z,7.39
2018-09-25T00:59:04.427Z,7.32
2018-09-25T01:00:04.392Z,7.40
2018-09-25T01:01:04.281Z,7.33
2018-09-25T01:02:04.275Z,7.29
2018-09-25T01:03:04.275Z,7.24
2018-09-25T01:04:04.156Z,7.25
2018-09-25T01:05:04.074Z,7.29
2018-09-25T01:06:04.040Z,7.29
2018-09-25T01:07:03.958Z,7.28
2018-09-25T01:08:03.961Z,7.31
2018-09-25T01:09:03.920Z,7.36
2018-09-25T01:10:03.805Z,7.23
2018-09-25T01:11:03.802Z,7.25
2018-09-25T01:12:03.723Z,7.31
2018-09-25T01:13:03.685Z,7.20
2018-09-25T01:14:03.685Z,7.15
2018-09-25T01:15:03.599Z,7.20
2018-09-25T01:16:03.568Z,7.24
2018-09-25T01:17:03.448Z,7.14
2018-09-25T01:18:03.359Z,7.07
2018-09-25T01:19:03.385Z,7.05
2018-09-25T01:20:03.332Z,6.96
2018-09-25T01:21:03.253Z,6.84
2018-09-25T01:22:03.218Z,6.84
2018-09-25T01:23:03.133Z,6.81
2018-09-25T01:24:03.215Z,6.74
2018-09-25T01:25:03.012Z,6.82
2018-09-25T01:26:03.096Z,6.77
2018-09-25T01:27:02.900Z,6.79
2018-09-25T01:28:02.859Z,6.78
2018-09-25T01:29:02.860Z,6.74
2018-09-25T01:30:02.864Z,6.77
2018-09-25T01:31:02.743Z,6.77
2018-09-25T01:32:02.744Z,6.82
2018-09-25T01:33:02.625Z,6.78
2018-09-25T01:34:02.627Z,6.79
2018-09-25T01:35:02.626Z,6.75
2018-09-25T01:36:02.507Z,6.75
2018-09-25T01:37:02.508Z,6.88
2018-09-25T01:38:02.508Z,6.84
2018-09-25T01:39:02.389Z,6.81
2018-09-25T01:40:02.390Z,6.78
2018-09-25T01:41:02.274Z,6.79
2018-09-25T01:42:02.393Z,6.78
2018-09-25T01:43:02.153Z,6.69
2018-09-25T01:44:02.276Z,6.74
2018-09-25T01:45:02.091Z,6.75
2018-09-25T01:46:02.159Z,6.66
2018-09-25T01:47:02.039Z,6.56
2018-09-25T01:48:01.919Z,6.59
2018-09-25T01:49:01.807Z,6.60
2018-09-25T01:50:01.922Z,6.54
2018-09-25T01:51:01.804Z,6.60
2018-09-25T01:52:01.682Z,6.59
2018-09-25T01:53:01.684Z,6.52
2018-09-25T01:54:01.684Z,6.42
2018-09-25T01:55:01.564Z,6.45
2018-09-25T01:56:01.446Z,6.42
2018-09-25T01:57:01.568Z,6.38
2018-09-25T01:58:01.329Z,6.26
2018-09-25T01:59:01.330Z,6.42
2018-09-25T02:00:01.209Z,6.27
2018-09-25T02:01:01.330Z,6.26
2018-09-25T02:02:01.216Z,6.27
2018-09-25T02:03:01.093Z,6.28
2018-09-25T02:04:01.094Z,6.33
2018-09-25T02:05:00.975Z,6.22
2018-09-25T02:06:01.097Z,6.19
2018-09-25T02:07:00.857Z,6.17
2018-09-25T02:08:00.858Z,6.19
2018-09-25T02:09:00.739Z,6.12
2018-09-25T02:10:00.861Z,6.09
2018-09-25T02:11:00.742Z,6.19
2018-09-25T02:12:00.624Z,6.17
2018-09-25T02:13:00.623Z,6.07
2018-09-25T02:14:00.503Z,6.09
2018-09-25T02:15:00.506Z,6.04
2018-09-25T02:16:00.386Z,6.09
2018-09-25T02:17:00.387Z,6.07
2018-09-25T02:18:00.396Z,6.11
2018-09-25T02:19:00.271Z,6.09
2018-09-25T02:20:00.150Z,6.09
2018-09-25T02:21:00.150Z,6.09
2018-09-25T02:22:00.034Z,6.04
2018-09-25T02:23:00.152Z,6.05
2018-09-25T02:23:59.915Z,6.01
2018-09-25T02:25:00.034Z,6.04
2018-09-25T02:25:59.917Z,5.98
2018-09-25T02:26:59.916Z,6.05
2018-09-25T02:27:59.799Z,5.97
2018-09-25T02:28:59.678Z,5.93
2018-09-25T02:29:59.798Z,5.89
2018-09-25T02:30:59.560Z,5.90
2018-09-25T02:31:59.718Z,5.91
2018-09-25T02:32:59.442Z,5.87
2018-09-25T02:33:59.443Z,5.82
2018-09-25T02:34:59.445Z,5.80
2018-09-25T02:35:59.324Z,5.72
2018-09-25T02:36:59.142Z,5.82
2018-09-25T02:37:59.258Z,5.76
2018-09-25T02:38:59.140Z,5.80
2018-09-25T02:39:59.021Z,5.65
2018-09-25T02:40:58.976Z,5.66
2018-09-25T02:41:58.901Z,5.64
2018-09-25T02:42:58.905Z,5.68
2018-09-25T02:43:58.874Z,5.71
2018-09-25T02:44:58.744Z,5.64
2018-09-25T02:45:58.666Z,5.59
2018-09-25T02:46:58.621Z,5.56
2018-09-25T02:47:58.554Z,5.64
2018-09-25T02:48:58.545Z,5.64
2018-09-25T02:49:58.505Z,5.53
2018-09-25T02:50:58.384Z,5.51
2018-09-25T02:51:58.388Z,5.57
2018-09-25T02:52:58.266Z,5.56
2018-09-25T02:53:58.315Z,5.54
2018-09-25T02:54:58.187Z,5.57
2018-09-25T02:55:58.149Z,5.54
2018-09-25T02:56:58.077Z,5.48
2018-09-25T02:57:58.032Z,5.39
2018-09-25T02:58:58.029Z,5.48
2018-09-25T02:59:57.910Z,5.50
2018-09-25T03:00:57.840Z,5.38
2018-09-25T03:01:57.839Z,5.36
2018-09-25T03:02:57.794Z,5.39
2018-09-25T03:03:57.675Z,5.44
2018-09-25T03:04:57.675Z,5.41
2018-09-25T03:05:57.557Z,5.43
2018-09-25T03:06:57.599Z,5.39
2018-09-25T03:07:57.467Z,5.29
2018-09-25T03:08:57.440Z,5.33
2018-09-25T03:09:57.361Z,5.43
2018-09-25T03:10:57.320Z,5.36
2018-09-25T03:11:57.321Z,5.30
2018-09-25T03:12:57.206Z,5.28
2018-09-25T03:13:57.116Z,5.29
2018-09-25T03:14:57.082Z,5.29
2018-09-25T03:15:57.084Z,5.15
2018-09-25T03:16:57.008Z,5.21
2018-09-25T03:17:56.965Z,5.17
2018-09-25T03:18:56.879Z,5.10
2018-09-25T03:19:56.848Z,5.12
2018-09-25T03:20:56.754Z,5.12
2018-09-25T03:21:56.774Z,5.14
2018-09-25T03:22:56.648Z,5.07
2018-09-25T03:23:56.684Z,5.11
2018-09-25T03:24:56.533Z,5.10
2018-09-25T03:25:56.494Z,5.04
2018-09-25T03:26:56.497Z,5.08
2018-09-25T03:27:56.376Z,5.02
2018-09-25T03:28:56.440Z,5.02
2018-09-25T03:29:56.258Z,4.99
2018-09-25T03:30:56.298Z,4.99
2018-09-25T03:31:56.180Z,5.02
2018-09-25T03:32:56.140Z,5.02
2018-09-25T03:33:56.056Z,4.90
2018-09-25T03:34:56.023Z,5.00
2018-09-25T03:35:55.935Z,4.92
2018-09-25T03:36:55.941Z,4.96
2018-09-25T03:37:55.825Z,4.97
2018-09-25T03:38:55.826Z,4.89
2018-09-25T03:39:55.707Z,4.80
2018-09-25T03:40:55.669Z,4.87
2018-09-25T03:41:55.691Z,4.89
2018-09-25T03:42:55.558Z,4.90
2018-09-25T03:43:55.551Z,4.93
2018-09-25T03:44:55.433Z,4.93
2018-09-25T03:45:55.432Z,4.87
2018-09-25T03:46:55.365Z,4.89
2018-09-25T03:47:55.361Z,4.86
2018-09-25T03:48:55.245Z,4.84
2018-09-25T03:49:55.197Z,4.78
2018-09-25T03:50:55.118Z,4.80
2018-09-25T03:51:55.080Z,4.86
2018-09-25T03:52:55.079Z,4.84
2018-09-25T03:53:55.010Z,4.84
2018-09-25T03:54:54.886Z,4.90
2018-09-25T03:55:54.844Z,4.82
2018-09-25T03:56:54.765Z,4.77
2018-09-25T03:57:54.767Z,4.68
2018-09-25T03:58:54.735Z,4.77
2018-09-25T03:59:54.651Z,4.84
2018-09-25T04:00:54.615Z,4.68
2018-09-25T04:01:54.497Z,4.75
2018-09-25T04:02:54.489Z,4.68
2018-09-25T04:03:54.409Z,4.71
2018-09-25T04:04:54.372Z,4.71
2018-09-25T04:05:54.287Z,4.68
2018-09-25T04:06:54.254Z,4.67
2018-09-25T04:07:54.171Z,4.70
2018-09-25T04:08:54.171Z,4.66
2018-09-25T04:09:54.052Z,4.68
2018-09-25T04:10:54.023Z,4.71
2018-09-25T04:11:53.934Z,4.74
2018-09-25T04:12:53.899Z,4.71
2018-09-25T04:13:53.903Z,4.78
2018-09-25T04:14:53.816Z,4.73
2018-09-25T04:15:53.816Z,4.78
2018-09-25T04:16:53.668Z,4.84
2018-09-25T04:17:53.699Z,4.86
2018-09-25T04:18:53.585Z,4.73
2018-09-25T04:19:53.546Z,4.74
2018-09-25T04:20:53.675Z,4.68
2018-09-25T04:21:53.437Z,4.71
2018-09-25T04:22:53.345Z,4.68
2018-09-25T04:23:53.312Z,4.70
2018-09-25T04:24:53.229Z,4.60
2018-09-25T04:25:53.224Z,4.59
2018-09-25T04:26:53.110Z,4.58
2018-09-25T04:27:53.074Z,4.60
2018-09-25T04:28:53.076Z,4.55
2018-09-25T04:29:52.958Z,4.59
2018-09-25T04:30:52.957Z,4.60
2018-09-25T04:31:52.873Z,4.63
2018-09-25T04:32:52.840Z,4.67
2018-09-25T04:33:52.840Z,4.60
2018-09-25T04:34:52.758Z,4.58
2018-09-25T04:35:52.637Z,4.58
2018-09-25T04:36:52.608Z,4.59
2018-09-25T04:37:52.522Z,4.53
2018-09-25T04:38:52.490Z,4.50
2018-09-25T04:39:52.488Z,4.53
2018-09-25T04:40:52.489Z,4.45
2018-09-25T04:41:52.285Z,4.42
2018-09-25T04:42:52.249Z,4.41
2018-09-25T04:43:52.253Z,4.42
2018-09-25T04:44:52.164Z,4.41
2018-09-25T04:45:52.252Z,4.38
2018-09-25T04:46:52.048Z,4.35
2018-09-25T04:47:52.025Z,4.40
2018-09-25T04:48:51.932Z,4.38
2018-09-25T04:49:51.896Z,4.37
2018-09-25T04:50:51.899Z,4.38
2018-09-25T04:51:51.898Z,4.31
2018-09-25T04:52:51.692Z,4.35
2018-09-25T04:53:51.659Z,4.34
2018-09-25T04:54:51.573Z,4.20
2018-09-25T04:55:51.544Z,4.24
2018-09-25T04:56:51.545Z,4.24
2018-09-25T04:57:51.435Z,4.17
2018-09-25T04:58:51.545Z,4.17
2018-09-25T04:59:51.427Z,4.14
2018-09-25T05:00:51.428Z,4.16
2018-09-25T05:01:51.307Z,4.12
2018-09-25T05:02:51.428Z,4.20
2018-09-25T05:03:51.189Z,4.20
2018-09-25T05:04:51.191Z,4.10
2018-09-25T05:05:51.192Z,4.17
2018-09-25T05:06:51.072Z,4.16
2018-09-25T05:07:50.954Z,4.17
2018-09-25T05:08:50.953Z,4.12
2018-09-25T05:09:50.835Z,4.16
2018-09-25T05:10:50.957Z,4.14
2018-09-25T05:11:50.717Z,4.14
2018-09-25T05:12:50.718Z,4.14
2018-09-25T05:13:50.599Z,4.13
2018-09-25T05:14:50.600Z,4.13
2018-09-25T05:15:50.722Z,4.14
2018-09-25T05:16:50.482Z,4.12
2018-09-25T05:17:50.483Z,4.08
2018-09-25T05:18:50.374Z,3.96
2018-09-25T05:19:50.364Z,3.98
2018-09-25T05:20:50.725Z,4.01
2018-09-25T05:21:50.246Z,3.88
2018-09-25T05:22:50.126Z,3.98
2018-09-25T05:23:50.128Z,4.01
2018-09-25T05:24:50.164Z,3.99
2018-09-25T05:25:50.010Z,4.02
2018-09-25T05:26:49.893Z,3.99
2018-09-25T05:27:49.893Z,3.98
2018-09-25T05:28:49.778Z,3.91
2018-09-25T05:29:49.893Z,3.91
2018-09-25T05:30:49.654Z,3.92
2018-09-25T05:31:49.656Z,3.96
2018-09-25T05:32:49.659Z,3.95
2018-09-25T05:33:49.538Z,3.81
2018-09-25T05:34:49.658Z,3.83
2018-09-25T05:35:49.420Z,3.83
2018-09-25T05:36:49.423Z,3.86
2018-09-25T05:37:49.422Z,3.78
2018-09-25T05:38:49.302Z,3.83
2018-09-25T05:39:49.187Z,3.84
2018-09-25T05:40:49.351Z,3.81
2018-09-25T05:41:49.065Z,3.83
2018-09-25T05:42:49.187Z,3.80
2018-09-25T05:43:49.066Z,3.87
2018-09-25T05:44:48.948Z,3.80
2018-09-25T05:45:48.829Z,3.81
2018-09-25T05:46:49.070Z,3.87
2018-09-25T05:47:48.710Z,3.87
2018-09-25T05:48:48.828Z,3.92
2018-09-25T05:49:48.714Z,3.88
2018-09-25T05:50:48.593Z,3.94
2018-09-25T05:51:48.714Z,3.91
2018-09-25T05:52:48.595Z,4.01
2018-09-25T05:53:48.476Z,4.08
2018-09-25T05:54:48.357Z,3.96
2018-09-25T05:55:48.360Z,4.02
2018-09-25T05:56:48.240Z,4.16
2018-09-25T05:57:48.360Z,4.13
2018-09-25T05:58:48.121Z,4.20
2018-09-25T05:59:48.056Z,4.08
2018-09-25T06:00:48.064Z,4.20
2018-09-25T06:01:47.962Z,4.14
2018-09-25T06:02:48.007Z,4.20
2018-09-25T06:03:47.772Z,4.20
2018-09-25T06:04:47.773Z,4.23
2018-09-25T06:05:47.767Z,4.28
2018-09-25T06:06:47.655Z,4.24
2018-09-25T06:07:47.651Z,4.26
2018-09-25T06:08:47.540Z,4.24
2018-09-25T06:09:47.524Z,4.32
2018-09-25T06:10:47.422Z,4.32
2018-09-25T06:11:47.304Z,4.28
2018-09-25T06:12:47.344Z,4.31
2018-09-25T06:13:47.233Z,4.37
2018-09-25T06:14:47.185Z,4.34
2018-09-25T06:15:47.157Z,4.44
2018-09-25T06:16:47.064Z,4.40
2018-09-25T06:17:47.066Z,4.37
2018-09-25T06:18:46.950Z,4.42
2018-09-25T06:19:46.865Z,4.50
2018-09-25T06:20:46.874Z,4.52
2018-09-25T06:21:46.746Z,4.63
2018-09-25T06:22:46.709Z,4.63
2018-09-25T06:23:46.710Z,4.71
2018-09-25T06:24:46.590Z,4.66
2018-09-25T06:25:46.627Z,4.73
2018-09-25T06:26:46.473Z,4.82
2018-09-25T06:27:46.471Z,4.82
2018-09-25T06:28:46.405Z,4.90
2018-09-25T06:29:46.395Z,4.80
2018-09-25T06:30:46.272Z,4.96
2018-09-25T06:31:46.269Z,5.05
2018-09-25T06:32:46.159Z,5.12
2018-09-25T06:33:46.152Z,5.17
2018-09-25T06:34:46.045Z,5.29
2018-09-25T06:35:45.997Z,5.29
2018-09-25T06:36:45.919Z,5.26
2018-09-25T06:37:45.881Z,5.41
2018-09-25T06:38:45.938Z,5.44
2018-09-25T06:39:45.763Z,5.46
2018-09-25T06:40:45.768Z,5.46
2018-09-25T06:41:45.647Z,5.48
2018-09-25T06:42:45.645Z,5.61
2018-09-25T06:43:45.646Z,5.54
2018-09-25T06:44:45.568Z,5.64
2018-09-25T06:45:45.447Z,5.64
2018-09-25T06:46:45.408Z,5.68
2018-09-25T06:47:45.411Z,5.76
2018-09-25T06:48:45.293Z,5.79
2018-09-25T06:49:45.211Z,5.75
2018-09-25T06:50:45.171Z,5.84
2018-09-25T06:51:45.174Z,5.90
2018-09-25T06:52:45.094Z,5.91
2018-09-25T06:53:45.059Z,6.07
2018-09-25T06:54:44.977Z,6.05
2018-09-25T06:55:44.937Z,6.05
2018-09-25T06:56:44.873Z,6.17
2018-09-25T06:57:44.820Z,6.12
2018-09-25T06:58:44.741Z,6.22
2018-09-25T06:59:44.702Z,6.30
2018-09-25T07:00:44.725Z,6.31
2018-09-25T07:01:44.583Z,6.33
2018-09-25T07:02:44.505Z,6.44
2018-09-25T07:03:44.518Z,6.49
2018-09-25T07:04:44.471Z,6.57
2018-09-25T07:05:44.346Z,6.60
2018-09-25T07:06:44.349Z,6.74
2018-09-25T07:07:44.241Z,6.74
2018-09-25T07:08:44.278Z,6.78
2018-09-25T07:09:44.216Z,6.84
2018-09-25T07:10:44.172Z,6.89
2018-09-25T07:11:44.031Z,7.10
2018-09-25T07:12:43.994Z,7.07
2018-09-25T07:13:44.007Z,7.20
2018-09-25T07:14:43.875Z,7.35
2018-09-25T07:15:43.803Z,7.36
2018-09-25T07:16:43.756Z,7.45
2018-09-25T07:17:43.749Z,7.61
2018-09-25T07:18:43.680Z,7.67
2018-09-25T07:19:43.650Z,7.80
2018-09-25T07:20:43.535Z,7.83
2018-09-25T07:21:43.565Z,7.94
2018-09-25T07:22:43.451Z,7.94
2018-09-25T07:23:43.410Z,8.03
2018-09-25T07:24:43.393Z,8.18
2018-09-25T07:25:43.296Z,8.18
2018-09-25T07:26:43.295Z,8.33
2018-09-25T07:27:43.172Z,8.28
2018-09-25T07:28:43.085Z,8.46
2018-09-25T07:29:43.051Z,8.58
2018-09-25T07:30:43.060Z,8.49
2018-09-25T07:31:42.967Z,8.70
2018-09-25T07:32:42.935Z,8.69
2018-09-25T07:33:42.848Z,8.76
2018-09-25T07:34:42.814Z,8.76
2018-09-25T07:35:42.732Z,8.97
2018-09-25T07:36:42.728Z,8.92
2018-09-25T07:37:42.613Z,8.92
2018-09-25T07:38:42.617Z,9.06
2018-09-25T07:39:42.621Z,9.22
2018-09-25T07:40:42.462Z,9.28
2018-09-25T07:41:42.462Z,9.34
2018-09-25T07:42:42.349Z,9.46
2018-09-25T07:43:42.381Z,9.51
2018-09-25T07:44:42.261Z,9.55
2018-09-25T07:45:42.260Z,9.58
2018-09-25T07:46:42.143Z,9.73
2018-09-25T07:47:42.109Z,9.86
2018-09-25T07:48:42.110Z,9.92
2018-09-25T07:49:41.990Z,10.10
2018-09-25T07:50:42.109Z,10.46
2018-09-25T07:51:41.910Z,11.00
2018-09-25T07:52:41.871Z,11.81
2018-09-25T07:53:41.877Z,12.58
2018-09-25T07:54:41.753Z,13.38
2018-09-25T07:55:41.841Z,14.23
2018-09-25T07:56:41.635Z,14.92
2018-09-25T07:57:41.637Z,15.52
2018-09-25T07:58:41.564Z,16.17
2018-09-25T07:59:41.518Z,16.72
2018-09-25T08:00:41.520Z,17.26
2018-09-25T08:01:41.436Z,16.97
2018-09-25T08:02:41.404Z,16.28
2018-09-25T08:03:41.356Z,16.47
2018-09-25T08:04:41.284Z,17.23
2018-09-25T08:05:41.210Z,17.44
2018-09-25T08:06:41.286Z,17.59
2018-09-25T08:07:41.167Z,17.45
2018-09-25T08:08:41.087Z,18.29
2018-09-25T08:09:41.054Z,18.58
2018-09-25T08:10:40.967Z,18.98
2018-09-25T08:11:41.050Z,18.40
2018-09-25T08:12:40.932Z,19.14
2018-09-25T08:13:40.847Z,19.58
2018-09-25T08:14:40.814Z,19.70
2018-09-25T08:15:40.816Z,18.75
2018-09-25T08:16:40.815Z,18.05
2018-09-25T08:17:40.818Z,17.31
2018-09-25T08:18:40.696Z,18.44
2018-09-25T08:19:40.698Z,17.89
2018-09-25T08:20:40.700Z,17.12
2018-09-25T08:21:40.700Z,17.15
2018-09-25T08:22:40.706Z,18.00
2018-09-25T08:23:40.583Z,18.98
2018-09-25T08:24:40.582Z,19.49
2018-09-25T08:25:40.463Z,18.62
2018-09-25T08:26:40.467Z,17.57
2018-09-25T08:27:40.467Z,17.41
2018-09-25T08:28:40.466Z,17.24
2018-09-25T08:29:40.368Z,18.11
2018-09-25T08:30:40.232Z,18.88
2018-09-25T08:31:40.230Z,18.19
2018-09-25T08:32:40.232Z,18.01
2018-09-25T08:33:40.231Z,18.98
2018-09-25T08:34:40.112Z,18.47
2018-09-25T08:35:40.115Z,17.68
2018-09-25T08:36:39.997Z,17.26
2018-09-25T08:37:39.996Z,17.54
2018-09-25T08:38:40.167Z,17.19
2018-09-25T08:39:39.879Z,16.66
2018-09-25T08:40:39.879Z,16.28
2018-09-25T08:41:39.881Z,15.92
2018-09-25T08:42:39.761Z,17.06
2018-09-25T08:43:39.882Z,18.05
2018-09-25T08:44:39.763Z,18.83
2018-09-25T08:45:39.651Z,18.70
2018-09-25T08:46:39.644Z,18.08
2018-09-25T08:47:39.525Z,17.72
2018-09-25T08:48:39.526Z,17.24
2018-09-25T08:49:39.647Z,17.76
2018-09-25T08:50:39.409Z,18.75
2018-09-25T08:51:39.409Z,19.62
2018-09-25T08:52:39.409Z,19.88
2018-09-25T08:53:39.343Z,19.16
2018-09-25T08:54:39.411Z,18.74
2018-09-25T08:55:39.293Z,19.08
2018-09-25T08:56:39.175Z,18.45
2018-09-25T08:57:39.175Z,18.05
2018-09-25T08:58:39.175Z,17.56
2018-09-25T08:59:39.178Z,17.29
2018-09-25T09:00:39.178Z,16.75
2018-09-25T09:01:38.939Z,17.31
2018-09-25T09:02:38.939Z,18.31
2018-09-25T09:03:38.941Z,19.22
2018-09-25T09:04:38.826Z,19.19
2018-09-25T09:05:38.943Z,19.58
2018-09-25T09:06:38.831Z,19.51
2018-09-25T09:07:38.708Z,20.18
2018-09-25T09:08:38.705Z,19.66
2018-09-25T09:09:38.709Z,19.22
2018-09-25T09:10:38.711Z,19.36
2018-09-25T09:11:38.590Z,19.34
2018-09-25T09:12:38.469Z,18.98
2018-09-25T09:13:38.472Z,18.38
2018-09-25T09:14:38.474Z,17.86
2018-09-25T09:15:38.471Z,17.52
2018-09-25T09:16:38.352Z,17.52
2018-09-25T09:17:38.353Z,17.95
2018-09-25T09:18:38.171Z,17.39
2018-09-25T09:19:38.190Z,16.76
2018-09-25T09:20:38.170Z,15.90
2018-09-25T09:21:38.052Z,15.49
2018-09-25T09:22:38.049Z,15.70
2018-09-25T09:23:37.933Z,16.74
2018-09-25T09:24:37.889Z,17.44
2018-09-25T09:25:37.939Z,17.27
2018-09-25T09:26:37.891Z,17.02
2018-09-25T09:27:37.779Z,17.45
2018-09-25T09:28:37.771Z,18.04
2018-09-25T09:29:37.652Z,17.83
2018-09-25T09:30:37.653Z,17.56
2018-09-25T09:31:37.654Z,17.42
2018-09-25T09:32:37.540Z,17.09
2018-09-25T09:33:37.536Z,16.76
2018-09-25T09:34:37.457Z,17.27
2018-09-25T09:35:37.419Z,17.80
2018-09-25T09:36:37.419Z,18.47
2018-09-25T09:37:37.300Z,18.49
2018-09-25T09:38:37.342Z,18.70
2018-09-25T09:39:37.226Z,18.83
2018-09-25T09:40:37.181Z,18.49
2018-09-25T09:41:37.379Z,18.20
2018-09-25T09:42:37.109Z,18.11
2018-09-25T09:43:37.101Z,18.04
2018-09-25T09:44:36.980Z,17.83
2018-09-25T09:45:36.947Z,17.78
2018-09-25T09:46:36.945Z,17.94
2018-09-25T09:47:36.864Z,18.37
2018-09-25T09:48:36.865Z,18.45
2018-09-25T09:49:42.709Z,18.73
2018-09-25T09:50:36.711Z,18.75
2018-09-25T09:51:36.709Z,18.80
2018-09-25T09:52:36.632Z,18.63
2018-09-25T09:53:36.627Z,18.43
2018-09-25T09:54:36.590Z,18.16
2018-09-25T09:55:36.506Z,17.79
2018-09-25T09:56:36.472Z,17.42
2018-09-25T09:57:36.473Z,17.14
2018-09-25T09:58:36.355Z,16.91
2018-09-25T09:59:36.354Z,16.60
2018-09-25T10:00:36.281Z,16.50
2018-09-25T10:01:36.276Z,16.89
2018-09-25T10:02:36.237Z,17.26
2018-09-25T10:03:36.123Z,17.71
2018-09-25T10:04:36.120Z,18.15
2018-09-25T10:05:36.121Z,18.60
2018-09-25T10:06:36.020Z,19.40
2018-09-25T10:07:36.003Z,19.84
2018-09-25T10:08:35.909Z,20.03
2018-09-25T10:09:35.925Z,20.34
2018-09-25T10:10:35.885Z,20.52
2018-09-25T10:11:35.769Z,20.56
2018-09-25T10:12:35.807Z,20.28
2018-09-25T10:13:35.687Z,19.85
2018-09-25T10:14:35.706Z,19.71
2018-09-25T10:15:35.651Z,19.34
2018-09-25T10:16:35.554Z,19.18
2018-09-25T10:17:35.532Z,18.92
2018-09-25T10:18:35.467Z,18.73
2018-09-25T10:19:35.454Z,18.62
2018-09-25T10:20:35.415Z,18.65
2018-09-25T10:21:35.329Z,18.63
2018-09-25T10:22:35.297Z,18.23
2018-09-25T10:23:35.297Z,17.64
2018-09-25T10:24:35.235Z,17.54
2018-09-25T10:25:35.182Z,17.89
2018-09-25T10:26:35.096Z,18.44
2018-09-25T10:27:35.062Z,18.43
2018-09-25T10:28:35.064Z,17.89
2018-09-25T10:29:35.069Z,17.39
2018-09-25T10:30:34.993Z,17.36
2018-09-25T10:31:34.876Z,17.39
2018-09-25T10:32:34.837Z,17.54
2018-09-25T10:33:34.827Z,18.00
2018-09-25T10:34:35.801Z,18.11
2018-09-25T10:35:34.754Z,18.41
2018-09-25T10:36:34.711Z,18.66
2018-09-25T10:37:34.604Z,18.49
2018-09-25T10:38:34.591Z,18.60
2018-09-25T10:39:34.515Z,18.60
2018-09-25T10:40:34.516Z,18.44
2018-09-25T10:41:34.475Z,18.41
2018-09-25T10:42:34.402Z,18.53
2018-09-25T10:43:34.361Z,18.49
2018-09-25T10:44:34.365Z,18.31
2018-09-25T10:45:34.277Z,18.40
2018-09-25T10:46:34.243Z,18.26
2018-09-25T10:47:34.158Z,18.31
2018-09-25T10:48:34.125Z,18.53
2018-09-25T10:49:34.128Z,18.49
2018-09-25T10:50:34.124Z,18.41
2018-09-25T10:51:34.005Z,18.20
2018-09-25T10:52:34.007Z,18.00
2018-09-25T10:53:33.892Z,17.98
2018-09-25T10:54:33.887Z,18.28
2018-09-25T10:55:33.936Z,18.75
2018-09-25T10:56:33.770Z,19.19
2018-09-25T10:57:33.801Z,19.24
2018-09-25T10:58:33.692Z,19.49
2018-09-25T10:59:33.672Z,19.47
2018-09-25T11:00:33.570Z,19.45
2018-09-25T11:01:33.576Z,19.11
2018-09-25T11:02:33.536Z,18.60
2018-09-25T11:03:33.456Z,18.49
2018-09-25T11:04:33.571Z,18.63
2018-09-25T11:05:33.421Z,18.65
2018-09-25T11:06:33.338Z,18.49
2018-09-25T11:07:33.302Z,18.65
2018-09-25T11:08:33.219Z,18.78
2018-09-25T11:09:33.186Z,19.16
2018-09-25T11:10:33.185Z,19.24
2018-09-25T11:11:33.185Z,19.37
2018-09-25T11:12:33.066Z,19.49
2018-09-25T11:13:33.069Z,19.63
2018-09-25T11:14:33.068Z,19.74
2018-09-25T11:15:34.064Z,20.24
2018-09-25T11:16:32.950Z,20.36
2018-09-25T11:17:32.856Z,20.44
2018-09-25T11:18:32.831Z,20.40
2018-09-25T11:19:32.872Z,20.24
2018-09-25T11:20:32.715Z,20.14
2018-09-25T11:21:32.715Z,19.74
2018-09-25T11:22:32.636Z,19.48
2018-09-25T11:23:32.596Z,19.18
2018-09-25T11:24:32.597Z,18.62
2018-09-25T11:25:32.704Z,18.50
2018-09-25T11:26:32.480Z,18.37
2018-09-25T11:27:32.402Z,18.37
2018-09-25T11:28:32.374Z,18.31
2018-09-25T11:29:32.366Z,18.33
2018-09-25T11:30:32.280Z,18.50
2018-09-25T11:31:32.244Z,18.86
2018-09-25T11:32:32.246Z,19.14
2018-09-25T11:33:32.161Z,19.52
2018-09-25T11:34:32.129Z,19.70
2018-09-25T11:35:32.043Z,19.67
2018-09-25T11:36:32.009Z,19.74
2018-09-25T11:37:32.130Z,19.76
2018-09-25T11:38:32.017Z,19.69
2018-09-25T11:39:31.891Z,19.64
2018-09-25T11:40:31.895Z,19.48
2018-09-25T11:41:31.894Z,19.31
2018-09-25T11:42:32.015Z,19.15
2018-09-25T11:43:31.777Z,19.04
2018-09-25T11:44:31.831Z,18.98
2018-09-25T11:45:31.778Z,18.55
2018-09-25T11:46:31.671Z,18.33
2018-09-25T11:47:31.780Z,18.19
2018-09-25T11:48:31.554Z,18.10
2018-09-25T11:49:31.541Z,17.86
2018-09-25T11:50:31.548Z,17.71
2018-09-25T11:51:31.425Z,17.71
2018-09-25T11:52:31.546Z,17.57
2018-09-25T11:53:31.427Z,17.74
2018-09-25T11:54:31.429Z,18.07
2018-09-25T11:55:31.312Z,18.40
2018-09-25T11:56:31.192Z,18.65
2018-09-25T11:57:31.190Z,18.99
2018-09-25T11:58:31.253Z,19.22
2018-09-25T11:59:31.194Z,19.37
2018-09-25T12:00:31.075Z,19.55
2018-09-25T12:01:30.953Z,19.73
2018-09-25T12:02:30.956Z,19.88
2018-09-25T12:03:30.956Z,20.09
2018-09-25T12:04:31.027Z,20.25
2018-09-25T12:05:30.837Z,20.43
2018-09-25T12:06:30.840Z,20.52
2018-09-25T12:07:30.719Z,20.60
2018-09-25T12:08:30.720Z,20.48
2018-09-25T12:09:30.721Z,20.28
2018-09-25T12:10:30.729Z,20.10
2018-09-25T12:11:30.605Z,19.96
2018-09-25T12:12:30.484Z,19.74
2018-09-25T12:13:30.486Z,19.69
2018-09-25T12:14:30.485Z,19.56
2018-09-25T12:15:30.487Z,19.36
2018-09-25T12:16:30.487Z,19.22
2018-09-25T12:17:30.274Z,19.08
2018-09-25T12:18:30.250Z,18.99
2018-09-25T12:19:30.251Z,18.93
2018-09-25T12:20:30.251Z,18.74
2018-09-25T12:21:30.252Z,18.70
2018-09-25T12:22:30.132Z,18.84
2018-09-25T12:23:30.093Z,18.92
2018-09-25T12:24:30.095Z,18.83
2018-09-25T12:25:29.895Z,18.80
2018-09-25T12:26:30.021Z,18.93
2018-09-25T12:27:29.899Z,18.86
2018-09-25T12:28:29.903Z,18.90
2018-09-25T12:29:29.780Z,18.74
2018-09-25T12:30:29.780Z,18.62
2018-09-25T12:31:29.667Z,18.78
2018-09-25T12:32:29.669Z,18.74
2018-09-25T12:33:29.670Z,18.26
2018-09-25T12:34:29.546Z,18.40
2018-09-25T12:35:29.545Z,18.62
2018-09-25T12:36:29.429Z,18.78
2018-09-25T12:37:29.426Z,18.89
2018-09-25T12:38:51.391Z,18.92
2018-09-25T12:39:29.309Z,18.95
2018-09-25T12:40:29.313Z,19.11
2018-09-25T12:41:29.238Z,19.12
2018-09-25T12:42:31.111Z,18.98
2018-09-25T12:43:29.244Z,18.98
2018-09-25T12:44:29.087Z,19.14
2018-09-25T12:45:28.963Z,19.27
2018-09-25T12:46:29.007Z,19.48
2018-09-25T12:47:29.556Z,19.45
2018-09-25T12:48:29.244Z,19.47
2018-09-25T12:49:30.571Z,19.34
2018-09-25T12:50:28.773Z,19.29
2018-09-25T12:51:28.846Z,19.00
2018-09-25T12:52:28.764Z,18.88
2018-09-25T12:53:28.660Z,18.73
2018-09-25T12:54:28.612Z,18.62
2018-09-25T12:55:28.490Z,18.59
2018-09-25T12:56:28.489Z,18.43
2018-09-25T12:57:28.413Z,18.44
2018-09-25T12:58:28.413Z,18.40
2018-09-25T12:59:28.373Z,18.31
2018-09-25T13:00:28.302Z,18.16
2018-09-25T13:01:28.253Z,17.95
2018-09-25T13:02:28.174Z,17.85
2018-09-25T13:03:28.173Z,17.90
2018-09-25T13:04:28.146Z,17.79
2018-09-25T13:05:28.056Z,17.82
2018-09-25T13:06:28.019Z,17.86